sensor_id;sensor_type;location;lat;lon;timestamp;temperature;humidity
19947;DHT22;10135;50.702;7.276;2022-11-27T06:30:52;8.50;64.90
19947;DHT22;10135;50.702;7.276;2022-11-27T06:32:53;8.50;64.90
19947;DHT22;10135;50.702;7.276;2022-11-27T06:34:53;8.50;64.90
19947;DHT22;10135;50.702;7.276;2022-11-27T06:36:54;8.50;64.90
19947;DHT22;10135;50.702;7.276;2022-11-27T06:38:54;8.50;64.90
19947;DHT22;10135;50.702;7.276;2022-11-27T06:41:01;8.60;64.90
19947;DHT22;10135;50.702;7.276;2022-11-27T06:43:06;8.60;65.00
19947;DHT22;10135;50.702;7.276;2022-11-27T06:45:08;8.70;64.90
19947;DHT22;10135;50.702;7.276;2022-11-27T06:47:09;8.70;64.90
19947;DHT22;10135;50.702;7.276;2022-11-27T06:49:11;8.70;64.80
19947;DHT22;10135;50.702;7.276;2022-11-27T06:51:14;8.70;64.80
19947;DHT22;10135;50.702;7.276;2022-11-27T06:53:17;8.70;64.80
19947;DHT22;10135;50.702;7.276;2022-11-27T06:55:18;8.80;64.80
19947;DHT22;10135;50.702;7.276;2022-11-27T06:57:19;8.80;64.80
19947;DHT22;10135;50.702;7.276;2022-11-27T06:59:19;8.80;64.80
19947;DHT22;10135;50.702;7.276;2022-11-27T07:01:26;8.80;64.80
19947;DHT22;10135;50.702;7.276;2022-11-27T07:03:28;8.80;64.80
19947;DHT22;10135;50.702;7.276;2022-11-27T07:05:29;8.90;64.80
19947;DHT22;10135;50.702;7.276;2022-11-27T07:07:30;8.90;64.80
19947;DHT22;10135;50.702;7.276;2022-11-27T07:09:30;8.90;64.80
19947;DHT22;10135;50.702;7.276;2022-11-27T07:11:31;8.90;64.80
19947;DHT22;10135;50.702;7.276;2022-11-27T07:13:33;8.90;64.90
19947;DHT22;10135;50.702;7.276;2022-11-27T07:15:34;8.90;64.80
19947;DHT22;10135;50.702;7.276;2022-11-27T07:17:35;8.90;64.80
19947;DHT22;10135;50.702;7.276;2022-11-27T07:19:37;8.90;64.70
19947;DHT22;10135;50.702;7.276;2022-11-27T07:21:38;8.90;64.70
19947;DHT22;10135;50.702;7.276;2022-11-27T07:23:39;9.00;64.80
19947;DHT22;10135;50.702;7.276;2022-11-27T07:25:39;9.00;64.80
19947;DHT22;10135;50.702;7.276;2022-11-27T07:27:40;9.00;64.90
19947;DHT22;10135;50.702;7.276;2022-11-27T07:29:40;9.00;64.80
19947;DHT22;10135;50.702;7.276;2022-11-27T07:31:41;9.00;64.80
19947;DHT22;10135;50.702;7.276;2022-11-27T07:33:42;9.00;64.80
19947;DHT22;10135;50.702;7.276;2022-11-27T07:35:42;9.00;64.80
19947;DHT22;10135;50.702;7.276;2022-11-27T07:37:43;9.10;64.90
19947;DHT22;10135;50.702;7.276;2022-11-27T07:39:44;9.10;64.80
19947;DHT22;10135;50.702;7.276;2022-11-27T07:41:44;9.10;64.80
19947;DHT22;10135;50.702;7.276;2022-11-27T07:43:45;9.10;64.70
19947;DHT22;10135;50.702;7.276;2022-11-27T07:45:46;9.10;64.80
19947;DHT22;10135;50.702;7.276;2022-11-27T07:47:47;9.10;64.70
19947;DHT22;10135;50.702;7.276;2022-11-27T07:49:47;9.10;64.70
19947;DHT22;10135;50.702;7.276;2022-11-27T07:51:48;9.10;64.70
19947;DHT22;10135;50.702;7.276;2022-11-27T07:53:48;9.20;64.80
19947;DHT22;10135;50.702;7.276;2022-11-27T07:55:52;9.20;64.80
19947;DHT22;10135;50.702;7.276;2022-11-27T07:57:52;9.10;64.70
19947;DHT22;10135;50.702;7.276;2022-11-27T07:59:53;9.20;64.70
19947;DHT22;10135;50.702;7.276;2022-11-27T08:01:54;9.20;64.70
19947;DHT22;10135;50.702;7.276;2022-11-27T08:03:55;9.20;64.70
19947;DHT22;10135;50.702;7.276;2022-11-27T08:05:55;9.20;64.70
19947;DHT22;10135;50.702;7.276;2022-11-27T08:07:58;9.20;64.70
19947;DHT22;10135;50.702;7.276;2022-11-27T08:10:00;9.20;64.70
19947;DHT22;10135;50.702;7.276;2022-11-27T08:12:01;9.30;64.70
19947;DHT22;10135;50.702;7.276;2022-11-27T08:14:04;9.30;64.70
19947;DHT22;10135;50.702;7.276;2022-11-27T08:16:06;9.30;64.70
19947;DHT22;10135;50.702;7.276;2022-11-27T08:18:07;9.30;64.80
19947;DHT22;10135;50.702;7.276;2022-11-27T08:20:08;9.30;64.70
19947;DHT22;10135;50.702;7.276;2022-11-27T08:22:13;9.40;64.80
19947;DHT22;10135;50.702;7.276;2022-11-27T08:24:15;9.40;64.80
19947;DHT22;10135;50.702;7.276;2022-11-27T08:26:16;9.40;64.90
19947;DHT22;10135;50.702;7.276;2022-11-27T08:28:17;9.40;64.80
19947;DHT22;10135;50.702;7.276;2022-11-27T08:30:17;9.40;64.80
19947;DHT22;10135;50.702;7.276;2022-11-27T08:32:18;9.40;64.80
19947;DHT22;10135;50.702;7.276;2022-11-27T08:34:19;9.50;64.80
19947;DHT22;10135;50.702;7.276;2022-11-27T08:36:19;9.50;64.80
19947;DHT22;10135;50.702;7.276;2022-11-27T08:38:22;9.50;64.70
19947;DHT22;10135;50.702;7.276;2022-11-27T08:40:23;9.60;64.80
19947;DHT22;10135;50.702;7.276;2022-11-27T08:42:24;9.60;64.80
19947;DHT22;10135;50.702;7.276;2022-11-27T08:44:24;9.60;64.80
19947;DHT22;10135;50.702;7.276;2022-11-27T08:46:25;9.60;64.70
19947;DHT22;10135;50.702;7.276;2022-11-27T08:48:26;9.60;64.80
19947;DHT22;10135;50.702;7.276;2022-11-27T08:50:27;9.70;64.80
19947;DHT22;10135;50.702;7.276;2022-11-27T08:52:27;9.70;64.70
19947;DHT22;10135;50.702;7.276;2022-11-27T08:54:28;9.80;64.70
19947;DHT22;10135;50.702;7.276;2022-11-27T08:56:29;9.70;64.60
19947;DHT22;10135;50.702;7.276;2022-11-27T08:58:29;9.80;64.60
19947;DHT22;10135;50.702;7.276;2022-11-27T09:00:31;9.80;64.60
19947;DHT22;10135;50.702;7.276;2022-11-27T09:02:33;9.80;64.60
19947;DHT22;10135;50.702;7.276;2022-11-27T09:04:34;9.80;64.50
19947;DHT22;10135;50.702;7.276;2022-11-27T09:06:34;9.90;64.50
19947;DHT22;10135;50.702;7.276;2022-11-27T09:08:36;9.90;64.50
19947;DHT22;10135;50.702;7.276;2022-11-27T09:10:37;9.90;64.40
19947;DHT22;10135;50.702;7.276;2022-11-27T09:12:38;9.90;64.40
19947;DHT22;10135;50.702;7.276;2022-11-27T09:14:39;9.90;64.40
19947;DHT22;10135;50.702;7.276;2022-11-27T09:16:40;9.90;64.40
19947;DHT22;10135;50.702;7.276;2022-11-27T09:18:43;9.90;64.40
19947;DHT22;10135;50.702;7.276;2022-11-27T09:20:45;9.90;64.40
19947;DHT22;10135;50.702;7.276;2022-11-27T09:23:12;10.00;64.50
19947;DHT22;10135;50.702;7.276;2022-11-27T09:25:13;10.00;64.40
19947;DHT22;10135;50.702;7.276;2022-11-27T09:27:14;10.00;64.30
19947;DHT22;10135;50.702;7.276;2022-11-27T09:29:14;10.00;64.30
19947;DHT22;10135;50.702;7.276;2022-11-27T09:31:15;10.00;64.30
19947;DHT22;10135;50.702;7.276;2022-11-27T09:33:16;10.00;64.30
19947;DHT22;10135;50.702;7.276;2022-11-27T09:35:17;10.10;64.40
19947;DHT22;10135;50.702;7.276;2022-11-27T09:37:17;10.20;64.50
19947;DHT22;10135;50.702;7.276;2022-11-27T09:39:18;10.20;64.40
19947;DHT22;10135;50.702;7.276;2022-11-27T09:41:45;10.20;64.40
19947;DHT22;10135;50.702;7.276;2022-11-27T09:46:04;10.30;64.30
19947;DHT22;10135;50.702;7.276;2022-11-27T09:48:17;10.40;64.30
19947;DHT22;10135;50.702;7.276;2022-11-27T09:50:31;10.40;64.30
19947;DHT22;10135;50.702;7.276;2022-11-27T09:52:41;10.40;64.20
19947;DHT22;10135;50.702;7.276;2022-11-27T09:54:54;10.40;64.20
19947;DHT22;10135;50.702;7.276;2022-11-27T09:56:59;10.40;64.20
19947;DHT22;10135;50.702;7.276;2022-11-27T09:59:01;10.50;64.20
19947;DHT22;10135;50.702;7.276;2022-11-27T10:01:11;10.50;64.10
19947;DHT22;10135;50.702;7.276;2022-11-27T10:03:15;10.50;64.00
19947;DHT22;10135;50.702;7.276;2022-11-27T10:05:23;10.50;64.00
19947;DHT22;10135;50.702;7.276;2022-11-27T10:17:16;10.60;64.10
19947;DHT22;10135;50.702;7.276;2022-11-27T10:21:50;10.70;64.00
19947;DHT22;10135;50.702;7.276;2022-11-27T10:24:16;10.80;63.90
19947;DHT22;10135;50.702;7.276;2022-11-27T10:26:45;10.80;63.70
19947;DHT22;10135;50.702;7.276;2022-11-27T10:31:48;10.90;63.80
19947;DHT22;10135;50.702;7.276;2022-11-27T10:33:55;10.90;64.40
19947;DHT22;10135;50.702;7.276;2022-11-27T10:35:59;11.00;63.80
19947;DHT22;10135;50.702;7.276;2022-11-27T10:38:09;11.00;63.80
19947;DHT22;10135;50.702;7.276;2022-11-27T10:47:24;11.10;63.40
19947;DHT22;10135;50.702;7.276;2022-11-27T10:49:27;11.10;63.60
19947;DHT22;10135;50.702;7.276;2022-11-27T10:51:31;11.20;63.60
19947;DHT22;10135;50.702;7.276;2022-11-27T10:53:36;11.20;63.60
19947;DHT22;10135;50.702;7.276;2022-11-27T11:00:24;11.30;63.40
19947;DHT22;10135;50.702;7.276;2022-11-27T11:02:29;11.30;63.40
19947;DHT22;10135;50.702;7.276;2022-11-27T11:04:32;11.40;63.30
19947;DHT22;10135;50.702;7.276;2022-11-27T11:06:38;11.40;63.30
19947;DHT22;10135;50.702;7.276;2022-11-27T11:08:41;11.40;63.10
19947;DHT22;10135;50.702;7.276;2022-11-27T11:10:57;11.40;63.20
19947;DHT22;10135;50.702;7.276;2022-11-27T11:15:14;11.40;63.10
19947;DHT22;10135;50.702;7.276;2022-11-27T11:17:16;11.40;63.10
19947;DHT22;10135;50.702;7.276;2022-11-27T11:19:23;11.40;63.00
19947;DHT22;10135;50.702;7.276;2022-11-27T11:21:33;11.40;63.70
19947;DHT22;10135;50.702;7.276;2022-11-27T11:23:39;11.50;63.10
19947;DHT22;10135;50.702;7.276;2022-11-27T11:25:48;11.50;63.70
19947;DHT22;10135;50.702;7.276;2022-11-27T11:27:54;11.50;62.90
19947;DHT22;10135;50.702;7.276;2022-11-27T11:30:04;11.50;63.00
19947;DHT22;10135;50.702;7.276;2022-11-27T11:34:24;11.50;62.80
19947;DHT22;10135;50.702;7.276;2022-11-27T11:36:27;11.50;62.90
19947;DHT22;10135;50.702;7.276;2022-11-27T11:38:30;11.50;63.00
19947;DHT22;10135;50.702;7.276;2022-11-27T11:40:34;11.60;62.90
19947;DHT22;10135;50.702;7.276;2022-11-27T11:42:36;11.60;63.00
19947;DHT22;10135;50.702;7.276;2022-11-27T11:44:38;11.70;63.10
19947;DHT22;10135;50.702;7.276;2022-11-27T11:46:39;11.70;62.90
19947;DHT22;10135;50.702;7.276;2022-11-27T11:48:40;11.70;62.90
19947;DHT22;10135;50.702;7.276;2022-11-27T11:51:13;11.70;62.90
19947;DHT22;10135;50.702;7.276;2022-11-27T11:53:35;11.70;62.60
19947;DHT22;10135;50.702;7.276;2022-11-27T11:58:20;11.80;62.50
19947;DHT22;10135;50.702;7.276;2022-11-27T12:00:48;11.80;62.40
19947;DHT22;10135;50.702;7.276;2022-11-27T12:03:32;11.80;62.50
19947;DHT22;10135;50.702;7.276;2022-11-27T12:16:09;11.80;62.20
19947;DHT22;10135;50.702;7.276;2022-11-27T12:18:44;11.80;62.20
19947;DHT22;10135;50.702;7.276;2022-11-27T12:21:21;11.80;62.00
19947;DHT22;10135;50.702;7.276;2022-11-27T12:24:00;11.70;62.20
19947;DHT22;10135;50.702;7.276;2022-11-27T12:32:04;11.70;61.80
19947;DHT22;10135;50.702;7.276;2022-11-27T12:37:52;11.70;61.80
19947;DHT22;10135;50.702;7.276;2022-11-27T12:43:48;11.70;62.00
19947;DHT22;10135;50.702;7.276;2022-11-27T12:45:43;11.60;61.70
19947;DHT22;10135;50.702;7.276;2022-11-27T12:47:55;11.60;61.80
19947;DHT22;10135;50.702;7.276;2022-11-27T12:50:19;11.60;62.00
19947;DHT22;10135;50.702;7.276;2022-11-27T12:52:24;11.60;61.60
19947;DHT22;10135;50.702;7.276;2022-11-27T12:57:26;11.60;61.50
19947;DHT22;10135;50.702;7.276;2022-11-27T12:59:52;11.60;61.90
19947;DHT22;10135;50.702;7.276;2022-11-27T13:02:04;11.50;62.00
19947;DHT22;10135;50.702;7.276;2022-11-27T13:04:47;11.50;61.80
19947;DHT22;10135;50.702;7.276;2022-11-27T13:07:09;11.50;61.80
19947;DHT22;10135;50.702;7.276;2022-11-27T13:09:18;11.50;61.60
19947;DHT22;10135;50.702;7.276;2022-11-27T13:11:30;11.50;61.80
19947;DHT22;10135;50.702;7.276;2022-11-27T13:13:38;11.50;61.80
19947;DHT22;10135;50.702;7.276;2022-11-27T13:16:35;11.50;61.60
19947;DHT22;10135;50.702;7.276;2022-11-27T13:18:22;11.40;61.40
19947;DHT22;10135;50.702;7.276;2022-11-27T13:20:34;11.40;61.60
19947;DHT22;10135;50.702;7.276;2022-11-27T13:22:37;11.40;61.60
19947;DHT22;10135;50.702;7.276;2022-11-27T13:24:38;11.40;61.80
19947;DHT22;10135;50.702;7.276;2022-11-27T13:28:43;11.40;61.60
19947;DHT22;10135;50.702;7.276;2022-11-27T13:30:47;11.40;61.60
19947;DHT22;10135;50.702;7.276;2022-11-27T13:32:53;11.40;61.60
19947;DHT22;10135;50.702;7.276;2022-11-27T13:35:02;11.40;61.60
19947;DHT22;10135;50.702;7.276;2022-11-27T13:37:06;11.40;61.60
19947;DHT22;10135;50.702;7.276;2022-11-27T13:39:24;11.40;61.60
19947;DHT22;10135;50.702;7.276;2022-11-27T13:41:42;11.40;61.10
19947;DHT22;10135;50.702;7.276;2022-11-27T13:43:44;11.40;61.30
19947;DHT22;10135;50.702;7.276;2022-11-27T13:45:47;11.40;61.60
19947;DHT22;10135;50.702;7.276;2022-11-27T13:47:49;11.40;61.60
19947;DHT22;10135;50.702;7.276;2022-11-27T13:50:08;11.40;61.50
19947;DHT22;10135;50.702;7.276;2022-11-27T13:52:15;11.40;61.10
19947;DHT22;10135;50.702;7.276;2022-11-27T13:54:18;11.40;61.30
19947;DHT22;10135;50.702;7.276;2022-11-27T13:56:28;11.40;61.30
19947;DHT22;10135;50.702;7.276;2022-11-27T13:58:33;11.40;61.10
19947;DHT22;10135;50.702;7.276;2022-11-27T14:00:44;11.50;61.30
19947;DHT22;10135;50.702;7.276;2022-11-27T14:02:49;11.40;61.00
19947;DHT22;10135;50.702;7.276;2022-11-27T14:04:52;11.50;61.20
19947;DHT22;10135;50.702;7.276;2022-11-27T14:07:11;11.40;61.20
19947;DHT22;10135;50.702;7.276;2022-11-27T14:09:15;11.40;60.80
19947;DHT22;10135;50.702;7.276;2022-11-27T14:11:16;11.40;61.20
19947;DHT22;10135;50.702;7.276;2022-11-27T14:13:49;11.40;61.20
19947;DHT22;10135;50.702;7.276;2022-11-27T14:15:57;11.40;60.70
19947;DHT22;10135;50.702;7.276;2022-11-27T14:18:16;11.40;61.00
19947;DHT22;10135;50.702;7.276;2022-11-27T14:20:23;11.40;60.90
19947;DHT22;10135;50.702;7.276;2022-11-27T14:22:47;11.40;61.10
19947;DHT22;10135;50.702;7.276;2022-11-27T14:24:53;11.40;60.70
19947;DHT22;10135;50.702;7.276;2022-11-27T14:26:55;11.40;61.10
19947;DHT22;10135;50.702;7.276;2022-11-27T14:28:58;11.40;61.10
19947;DHT22;10135;50.702;7.276;2022-11-27T14:31:00;11.30;61.10
19947;DHT22;10135;50.702;7.276;2022-11-27T14:33:02;11.30;61.10
19947;DHT22;10135;50.702;7.276;2022-11-27T14:35:17;11.30;61.10
19947;DHT22;10135;50.702;7.276;2022-11-27T14:37:24;11.30;61.10
19947;DHT22;10135;50.702;7.276;2022-11-27T14:39:32;11.30;61.10
19947;DHT22;10135;50.702;7.276;2022-11-27T14:41:38;11.30;61.00
19947;DHT22;10135;50.702;7.276;2022-11-27T14:43:39;11.30;61.10
19947;DHT22;10135;50.702;7.276;2022-11-27T14:45:48;11.30;61.20
19947;DHT22;10135;50.702;7.276;2022-11-27T14:47:53;11.30;61.00
19947;DHT22;10135;50.702;7.276;2022-11-27T14:49:54;11.30;61.20
19947;DHT22;10135;50.702;7.276;2022-11-27T14:52:03;11.20;61.10
19947;DHT22;10135;50.702;7.276;2022-11-27T14:54:10;11.20;61.10
19947;DHT22;10135;50.702;7.276;2022-11-27T14:56:24;11.20;61.10
19947;DHT22;10135;50.702;7.276;2022-11-27T14:58:28;11.20;61.20
19947;DHT22;10135;50.702;7.276;2022-11-27T15:00:29;11.20;61.40
19947;DHT22;10135;50.702;7.276;2022-11-27T15:02:31;11.20;61.20
19947;DHT22;10135;50.702;7.276;2022-11-27T15:04:39;11.20;61.20
19947;DHT22;10135;50.702;7.276;2022-11-27T15:06:44;11.20;61.10
19947;DHT22;10135;50.702;7.276;2022-11-27T15:08:46;11.20;61.20
19947;DHT22;10135;50.702;7.276;2022-11-27T15:10:47;11.20;61.10
19947;DHT22;10135;50.702;7.276;2022-11-27T15:12:52;11.20;61.20
19947;DHT22;10135;50.702;7.276;2022-11-27T15:15:14;11.20;61.10
19947;DHT22;10135;50.702;7.276;2022-11-27T15:17:31;11.20;60.70
19947;DHT22;10135;50.702;7.276;2022-11-27T15:19:35;11.10;61.00
19947;DHT22;10135;50.702;7.276;2022-11-27T15:21:37;11.10;60.90
19947;DHT22;10135;50.702;7.276;2022-11-27T15:23:44;11.10;61.00
19947;DHT22;10135;50.702;7.276;2022-11-27T15:26:10;11.10;60.80
19947;DHT22;10135;50.702;7.276;2022-11-27T15:30:23;11.10;60.70
19947;DHT22;10135;50.702;7.276;2022-11-27T15:32:25;11.00;60.90
19947;DHT22;10135;50.702;7.276;2022-11-27T15:34:33;11.00;60.80
19947;DHT22;10135;50.702;7.276;2022-11-27T15:36:44;11.00;60.90
19947;DHT22;10135;50.702;7.276;2022-11-27T15:38:48;11.00;60.70
19947;DHT22;10135;50.702;7.276;2022-11-27T15:40:57;11.00;61.00
19947;DHT22;10135;50.702;7.276;2022-11-27T15:42:59;10.90;60.80
19947;DHT22;10135;50.702;7.276;2022-11-27T15:45:00;10.90;61.00
19947;DHT22;10135;50.702;7.276;2022-11-27T15:47:03;10.90;60.90
19947;DHT22;10135;50.702;7.276;2022-11-27T15:49:11;10.90;61.00
19947;DHT22;10135;50.702;7.276;2022-11-27T15:51:13;10.80;60.90
19947;DHT22;10135;50.702;7.276;2022-11-27T15:53:14;10.80;60.90
19947;DHT22;10135;50.702;7.276;2022-11-27T15:55:14;10.80;61.10
19947;DHT22;10135;50.702;7.276;2022-11-27T15:57:15;10.80;61.00
19947;DHT22;10135;50.702;7.276;2022-11-27T15:59:17;10.80;61.10
19947;DHT22;10135;50.702;7.276;2022-11-27T16:01:19;10.70;61.00
19947;DHT22;10135;50.702;7.276;2022-11-27T16:03:20;10.70;61.10
19947;DHT22;10135;50.702;7.276;2022-11-27T16:05:21;10.70;61.10
19947;DHT22;10135;50.702;7.276;2022-11-27T16:07:22;10.70;61.10
19947;DHT22;10135;50.702;7.276;2022-11-27T16:09:22;10.70;61.10
19947;DHT22;10135;50.702;7.276;2022-11-27T16:11:24;10.70;61.20
19947;DHT22;10135;50.702;7.276;2022-11-27T16:13:26;10.60;61.10
19947;DHT22;10135;50.702;7.276;2022-11-27T16:15:27;10.60;61.20
19947;DHT22;10135;50.702;7.276;2022-11-27T16:17:27;10.60;61.20
19947;DHT22;10135;50.702;7.276;2022-11-27T16:19:28;10.50;61.20
19947;DHT22;10135;50.702;7.276;2022-11-27T16:21:29;10.50;62.00
19947;DHT22;10135;50.702;7.276;2022-11-27T16:23:31;10.50;61.30
19947;DHT22;10135;50.702;7.276;2022-11-27T16:25:31;10.50;61.30
19947;DHT22;10135;50.702;7.276;2022-11-27T16:27:32;10.50;61.30
19947;DHT22;10135;50.702;7.276;2022-11-27T16:29:33;10.50;61.40
19947;DHT22;10135;50.702;7.276;2022-11-27T16:31:34;10.40;61.40
19947;DHT22;10135;50.702;7.276;2022-11-27T16:33:35;10.40;61.40
19947;DHT22;10135;50.702;7.276;2022-11-27T16:35:36;10.40;61.50
19947;DHT22;10135;50.702;7.276;2022-11-27T16:37:36;10.30;61.50
19947;DHT22;10135;50.702;7.276;2022-11-27T16:39:37;10.40;61.50
19947;DHT22;10135;50.702;7.276;2022-11-27T16:41:38;10.30;61.60
19947;DHT22;10135;50.702;7.276;2022-11-27T16:43:40;10.30;61.60
19947;DHT22;10135;50.702;7.276;2022-11-27T16:45:42;10.30;61.70
19947;DHT22;10135;50.702;7.276;2022-11-27T16:47:43;10.30;61.60
19947;DHT22;10135;50.702;7.276;2022-11-27T16:49:47;10.30;61.70
19947;DHT22;10135;50.702;7.276;2022-11-27T16:51:48;10.30;61.70
19947;DHT22;10135;50.702;7.276;2022-11-27T16:53:51;10.30;61.80
19947;DHT22;10135;50.702;7.276;2022-11-27T16:55:52;10.30;61.70
19947;DHT22;10135;50.702;7.276;2022-11-27T16:57:53;10.30;61.90
19947;DHT22;10135;50.702;7.276;2022-11-27T16:59:54;10.30;61.80
19947;DHT22;10135;50.702;7.276;2022-11-27T17:01:54;10.20;61.80
19947;DHT22;10135;50.702;7.276;2022-11-27T17:03:55;10.20;61.80
19947;DHT22;10135;50.702;7.276;2022-11-27T17:05:57;10.20;61.90
19947;DHT22;10135;50.702;7.276;2022-11-27T17:07:58;10.20;61.90
19947;DHT22;10135;50.702;7.276;2022-11-27T17:09:58;10.20;61.90
19947;DHT22;10135;50.702;7.276;2022-11-27T17:11:59;10.30;61.90
19947;DHT22;10135;50.702;7.276;2022-11-27T17:14:02;10.20;61.90
19947;DHT22;10135;50.702;7.276;2022-11-27T17:16:06;10.20;61.90
19947;DHT22;10135;50.702;7.276;2022-11-27T17:18:10;10.20;61.90
19947;DHT22;10135;50.702;7.276;2022-11-27T17:20:10;10.20;61.90
19947;DHT22;10135;50.702;7.276;2022-11-27T17:22:11;10.20;62.00
19947;DHT22;10135;50.702;7.276;2022-11-27T17:24:13;10.10;61.90
19947;DHT22;10135;50.702;7.276;2022-11-27T17:26:17;10.10;62.00
19947;DHT22;10135;50.702;7.276;2022-11-27T17:28:19;10.10;62.10
19947;DHT22;10135;50.702;7.276;2022-11-27T17:30:20;10.10;62.10
19947;DHT22;10135;50.702;7.276;2022-11-27T17:32:21;10.10;62.10
19947;DHT22;10135;50.702;7.276;2022-11-27T17:34:21;10.10;62.10
19947;DHT22;10135;50.702;7.276;2022-11-27T17:36:23;10.10;62.10
19947;DHT22;10135;50.702;7.276;2022-11-27T17:38:24;10.10;62.10
19947;DHT22;10135;50.702;7.276;2022-11-27T17:40:25;10.00;62.10
19947;DHT22;10135;50.702;7.276;2022-11-27T17:42:25;10.00;62.20
19947;DHT22;10135;50.702;7.276;2022-11-27T17:44:26;10.10;62.20
19947;DHT22;10135;50.702;7.276;2022-11-27T17:46:28;10.00;62.90
19947;DHT22;10135;50.702;7.276;2022-11-27T17:48:29;10.00;63.00
19947;DHT22;10135;50.702;7.276;2022-11-27T17:50:30;10.00;62.30
19947;DHT22;10135;50.702;7.276;2022-11-27T17:52:31;10.00;62.30
19947;DHT22;10135;50.702;7.276;2022-11-27T17:54:32;10.00;62.40
19947;DHT22;10135;50.702;7.276;2022-11-27T17:56:33;10.00;62.30
19947;DHT22;10135;50.702;7.276;2022-11-27T17:58:34;10.00;62.30
19947;DHT22;10135;50.702;7.276;2022-11-27T18:00:36;10.00;62.30
19947;DHT22;10135;50.702;7.276;2022-11-27T18:02:38;10.00;62.30
19947;DHT22;10135;50.702;7.276;2022-11-27T18:04:38;10.00;62.30
19947;DHT22;10135;50.702;7.276;2022-11-27T18:06:39;10.00;62.30
19947;DHT22;10135;50.702;7.276;2022-11-27T18:08:40;10.00;62.30
19947;DHT22;10135;50.702;7.276;2022-11-27T18:10:41;10.00;62.30
19947;DHT22;10135;50.702;7.276;2022-11-27T18:12:41;10.00;62.40
19947;DHT22;10135;50.702;7.276;2022-11-27T18:14:42;10.00;62.30
19947;DHT22;10135;50.702;7.276;2022-11-27T18:16:43;10.00;62.50
19947;DHT22;10135;50.702;7.276;2022-11-27T18:18:44;10.00;62.50
19947;DHT22;10135;50.702;7.276;2022-11-27T18:20:44;9.90;62.40
19947;DHT22;10135;50.702;7.276;2022-11-27T18:22:46;10.00;62.40
19947;DHT22;10135;50.702;7.276;2022-11-27T18:24:46;10.00;62.50
19947;DHT22;10135;50.702;7.276;2022-11-27T18:26:47;10.00;62.50
19947;DHT22;10135;50.702;7.276;2022-11-27T18:28:52;9.90;62.50
19947;DHT22;10135;50.702;7.276;2022-11-27T18:30:53;9.90;62.60
19947;DHT22;10135;50.702;7.276;2022-11-27T18:32:54;9.90;62.60
19947;DHT22;10135;50.702;7.276;2022-11-27T18:34:55;9.90;62.50
19947;DHT22;10135;50.702;7.276;2022-11-27T18:36:55;9.90;62.40
19947;DHT22;10135;50.702;7.276;2022-11-27T18:39:00;9.90;62.50
19947;DHT22;10135;50.702;7.276;2022-11-27T18:41:17;9.90;62.60
19947;DHT22;10135;50.702;7.276;2022-11-27T18:43:21;9.90;62.90
19947;DHT22;10135;50.702;7.276;2022-11-27T18:45:21;9.90;62.60
19947;DHT22;10135;50.702;7.276;2022-11-27T18:47:22;9.90;62.60
19947;DHT22;10135;50.702;7.276;2022-11-27T18:49:23;9.80;62.60
19947;DHT22;10135;50.702;7.276;2022-11-27T18:51:24;9.80;62.60
19947;DHT22;10135;50.702;7.276;2022-11-27T18:53:25;9.80;62.70
19947;DHT22;10135;50.702;7.276;2022-11-27T18:55:26;9.80;62.60
19947;DHT22;10135;50.702;7.276;2022-11-27T18:57:27;9.80;62.60
19947;DHT22;10135;50.702;7.276;2022-11-27T18:59:27;9.80;62.60
19947;DHT22;10135;50.702;7.276;2022-11-27T19:01:30;9.80;63.20
19947;DHT22;10135;50.702;7.276;2022-11-27T19:03:31;9.80;62.60
19947;DHT22;10135;50.702;7.276;2022-11-27T19:05:34;9.80;62.70
19947;DHT22;10135;50.702;7.276;2022-11-27T19:07:35;9.80;62.80
19947;DHT22;10135;50.702;7.276;2022-11-27T19:09:36;9.80;62.70
19947;DHT22;10135;50.702;7.276;2022-11-27T19:11:38;9.80;62.60
19947;DHT22;10135;50.702;7.276;2022-11-27T19:13:41;9.80;62.70
19947;DHT22;10135;50.702;7.276;2022-11-27T19:15:43;9.80;62.80
19947;DHT22;10135;50.702;7.276;2022-11-27T19:17:45;9.80;62.70
19947;DHT22;10135;50.702;7.276;2022-11-27T19:19:46;9.80;62.60
19947;DHT22;10135;50.702;7.276;2022-11-27T19:21:47;9.80;62.70
19947;DHT22;10135;50.702;7.276;2022-11-27T19:23:48;9.80;62.60
19947;DHT22;10135;50.702;7.276;2022-11-27T19:25:50;9.80;62.70
19947;DHT22;10135;50.702;7.276;2022-11-27T19:27:50;9.80;62.60
19947;DHT22;10135;50.702;7.276;2022-11-27T19:29:51;9.80;62.60
19947;DHT22;10135;50.702;7.276;2022-11-27T19:31:52;9.80;62.60
19947;DHT22;10135;50.702;7.276;2022-11-27T19:33:57;9.80;62.60
19947;DHT22;10135;50.702;7.276;2022-11-27T19:36:01;9.80;62.60
19947;DHT22;10135;50.702;7.276;2022-11-27T19:38:06;9.80;62.60
19947;DHT22;10135;50.702;7.276;2022-11-27T19:40:07;9.90;62.60
19947;DHT22;10135;50.702;7.276;2022-11-27T19:42:08;9.80;62.50
19947;DHT22;10135;50.702;7.276;2022-11-27T19:44:11;9.90;62.60
19947;DHT22;10135;50.702;7.276;2022-11-27T19:46:18;9.90;62.60
19947;DHT22;10135;50.702;7.276;2022-11-27T19:48:20;9.90;62.60
19947;DHT22;10135;50.702;7.276;2022-11-27T19:50:21;9.90;62.60
19947;DHT22;10135;50.702;7.276;2022-11-27T19:52:22;9.90;62.50
19947;DHT22;10135;50.702;7.276;2022-11-27T19:54:22;9.90;62.60
19947;DHT22;10135;50.702;7.276;2022-11-27T19:56:23;9.90;62.40
19947;DHT22;10135;50.702;7.276;2022-11-27T19:58:27;9.90;62.50
19947;DHT22;10135;50.702;7.276;2022-11-27T20:00:27;9.90;62.60
19947;DHT22;10135;50.702;7.276;2022-11-27T20:02:28;9.90;62.50
19947;DHT22;10135;50.702;7.276;2022-11-27T20:04:29;9.90;62.40
19947;DHT22;10135;50.702;7.276;2022-11-27T20:06:30;9.90;62.40
19947;DHT22;10135;50.702;7.276;2022-11-27T20:08:31;10.00;62.40
19947;DHT22;10135;50.702;7.276;2022-11-27T20:10:32;10.00;62.50
19947;DHT22;10135;50.702;7.276;2022-11-27T20:12:33;9.90;62.40
19947;DHT22;10135;50.702;7.276;2022-11-27T20:14:36;9.90;62.40
19947;DHT22;10135;50.702;7.276;2022-11-27T20:16:36;10.00;62.40
19947;DHT22;10135;50.702;7.276;2022-11-27T20:18:38;10.00;62.30
19947;DHT22;10135;50.702;7.276;2022-11-27T20:20:39;10.00;62.40
19947;DHT22;10135;50.702;7.276;2022-11-27T20:22:40;10.00;62.40
19947;DHT22;10135;50.702;7.276;2022-11-27T20:24:40;10.00;62.30
19947;DHT22;10135;50.702;7.276;2022-11-27T20:26:41;10.00;62.30
19947;DHT22;10135;50.702;7.276;2022-11-27T20:28:42;10.00;62.30
19947;DHT22;10135;50.702;7.276;2022-11-27T20:30:43;10.00;62.20
19947;DHT22;10135;50.702;7.276;2022-11-27T20:32:44;10.10;62.30
19947;DHT22;10135;50.702;7.276;2022-11-27T20:34:44;10.10;62.30
19947;DHT22;10135;50.702;7.276;2022-11-27T20:36:45;10.10;62.30
19947;DHT22;10135;50.702;7.276;2022-11-27T20:38:46;10.10;62.20
19947;DHT22;10135;50.702;7.276;2022-11-27T20:40:47;10.10;62.30
19947;DHT22;10135;50.702;7.276;2022-11-27T20:42:48;10.10;63.00
19947;DHT22;10135;50.702;7.276;2022-11-27T20:44:49;10.10;62.20
19947;DHT22;10135;50.702;7.276;2022-11-27T20:46:50;10.10;62.20
19947;DHT22;10135;50.702;7.276;2022-11-27T20:48:52;10.10;62.10